Abnaki, Vermont
Current Conditions -  °F | °C
As of 7:35 AM on Monday 24 Nov 2014 (Local Time) from KFSO Reporting Station
Light Rain Light Rain  
Wind Chill: 45°   Ceiling: 4400
Heat Index: 47°   Visibility: 7mi
Dew Point: 45°   Wind: 5mph
Humidity: 93%   Direction: 130°SE
Pressure: 29.54"   Gusts: NA
Location:  44.841°N, 73.2779°W
Report Text: KFSO 241235Z AUTO 13004KT 7SM -RA OVC044 08/07 A2954 RMK AO2 T00830073
Loading
Personal Weather Stations






























Interactive Weather Map New forecast layout! Learn more

10-Day Weather Forecast

Advertisements
Track Severe Weather on mobile